Time;durP1;ratioP1;P1;durP2;ratioP2;P2;SDS_P1;SDS_P2;PMS_P1;PMS_P2;Temp;Humidity;BMP_temperature;BMP_pressure;BME280_temperature;BME280_humidity;BME280_pressure;Samples;Min_cycle;Max_cycle;Signal;HPM_P1;HPM_P2
2024/02/10 00:02:37;;;;;;;299.52;278.77;;;10.00;99.90;;;;;;12577152;28;20099;-36
2024/02/10 00:08:39;;;;;;;298.80;278.42;;;10.00;99.90;;;;;;12581104;28;20197;-35
2024/02/10 00:14:43;;;;;;;307.33;286.55;;;10.00;99.90;;;;;;12572145;28;20131;-37
2024/02/10 00:20:52;;;;;;;317.98;296.20;;;10.00;99.90;;;;;;12583759;28;20057;-36
2024/02/10 00:26:54;;;;;;;309.05;288.48;;;9.90;99.90;;;;;;12582705;28;20052;-37
2024/02/10 00:33:06;;;;;;;315.23;293.98;;;10.00;99.90;;;;;;12583476;28;20524;-36
2024/02/10 00:39:10;;;;;;;306.60;285.80;;;10.00;99.90;;;;;;12577669;28;20139;-37
2024/02/10 00:45:12;;;;;;;291.85;271.55;;;10.00;99.90;;;;;;12585261;28;20056;-36
2024/02/10 00:51:14;;;;;;;288.73;268.45;;;10.00;99.90;;;;;;12586576;28;20517;-37
2024/02/10 00:57:16;;;;;;;301.45;280.85;;;10.00;99.90;;;;;;12568346;28;20052;-37
2024/02/10 01:03:17;;;;;;;305.95;285.05;;;10.10;99.90;;;;;;12578173;28;20080;-37
2024/02/10 01:09:19;;;;;;;317.52;295.60;;;10.00;99.90;;;;;;12584790;28;20060;-36
2024/02/10 01:15:21;;;;;;;360.45;335.98;;;9.90;99.90;;;;;;12580758;28;20056;-37
2024/02/10 01:21:25;;;;;;;371.33;346.00;;;9.90;99.90;;;;;;12582189;28;20060;-37
2024/02/10 01:27:29;;;;;;;371.17;345.98;;;9.80;99.90;;;;;;12554324;28;20110;-37
2024/02/10 01:33:32;;;;;;;370.90;345.08;;;9.80;99.90;;;;;;12559899;28;20052;-37
2024/02/10 01:39:34;;;;;;;399.15;372.40;;;9.70;99.90;;;;;;12588548;28;20049;-37
2024/02/10 01:45:38;;;;;;;401.60;374.67;;;9.60;99.90;;;;;;12559535;28;20390;-37
2024/02/10 01:51:40;;;;;;;400.02;373.42;;;9.50;99.90;;;;;;12593503;28;20501;-37
2024/02/10 01:57:49;;;;;;;402.92;375.65;;;9.40;99.90;;;;;;12584363;28;20068;-37
2024/02/10 02:03:53;;;;;;;395.30;368.75;;;9.40;99.90;;;;;;12573936;28;20059;-37
2024/02/10 02:09:55;;;;;;;406.15;378.98;;;9.30;99.90;;;;;;12587439;28;20061;-37
2024/02/10 02:16:00;;;;;;;408.92;381.55;;;9.30;99.90;;;;;;12594372;28;20092;-37
2024/02/10 02:22:02;;;;;;;417.58;390.10;;;9.30;99.90;;;;;;12577620;28;20087;-37
2024/02/10 02:28:04;;;;;;;427.08;398.58;;;9.30;99.90;;;;;;12591197;28;20097;-37
2024/02/10 02:34:06;;;;;;;443.35;414.25;;;9.30;99.90;;;;;;12587597;28;20135;-37
2024/02/10 02:40:16;;;;;;;424.10;396.42;;;9.30;99.90;;;;;;12575151;28;20057;-37
2024/02/10 02:46:18;;;;;;;421.00;393.38;;;9.30;99.90;;;;;;12576563;28;20444;-37
2024/02/10 02:52:20;;;;;;;441.45;413.10;;;9.40;99.90;;;;;;12568552;28;20044;-36
2024/02/10 02:58:23;;;;;;;428.13;400.27;;;9.40;99.90;;;;;;12573700;28;20045;-36
2024/02/10 03:04:25;;;;;;;439.70;411.53;;;9.30;99.90;;;;;;12567366;28;20144;-37
2024/02/10 03:10:28;;;;;;;442.70;414.08;;;9.30;99.90;;;;;;12587447;28;20053;-37
2024/02/10 03:16:33;;;;;;;441.52;412.88;;;9.30;99.90;;;;;;12581092;28;20174;-37
2024/02/10 03:22:36;;;;;;;446.15;417.13;;;9.30;99.90;;;;;;12586312;28;20510;-36
2024/02/10 03:28:38;;;;;;;454.05;424.75;;;9.30;99.90;;;;;;12575673;28;20048;-37
2024/02/10 03:34:40;;;;;;;465.40;435.60;;;9.20;99.90;;;;;;12567327;28;20132;-37
2024/02/10 03:40:42;;;;;;;484.83;453.67;;;9.20;99.90;;;;;;12590371;28;20048;-36
2024/02/10 03:46:44;;;;;;;506.95;474.48;;;9.10;99.90;;;;;;12570462;28;20061;-36
2024/02/10 03:52:46;;;;;;;512.97;479.63;;;9.10;99.90;;;;;;12579103;28;20041;-37
2024/02/10 03:58:48;;;;;;;507.25;474.73;;;9.10;99.90;;;;;;12570367;28;20052;-37
2024/02/10 04:04:50;;;;;;;492.00;460.00;;;9.10;99.90;;;;;;12564058;28;20048;-36
2024/02/10 04:10:52;;;;;;;516.55;483.15;;;9.10;99.90;;;;;;12583847;28;20056;-37
2024/02/10 04:16:54;;;;;;;537.03;502.63;;;9.10;99.90;;;;;;12587849;28;20085;-37
2024/02/10 04:22:57;;;;;;;519.78;486.55;;;9.10;99.90;;;;;;12577781;28;20246;-37
2024/02/10 04:29:00;;;;;;;521.10;487.98;;;9.20;99.90;;;;;;12572319;28;20056;-37
2024/02/10 04:35:02;;;;;;;510.75;478.40;;;9.10;99.90;;;;;;12584930;28;20484;-36
2024/02/10 04:41:04;;;;;;;505.77;473.77;;;9.20;99.90;;;;;;12574503;28;20048;-36
2024/02/10 04:47:06;;;;;;;500.17;468.17;;;9.10;99.90;;;;;;12583795;28;20094;-36
2024/02/10 04:53:08;;;;;;;505.13;473.38;;;9.10;99.90;;;;;;12574426;28;20115;-37
2024/02/10 04:59:18;;;;;;;497.25;466.00;;;9.00;99.90;;;;;;12581299;28;20428;-36
2024/02/10 05:05:20;;;;;;;489.65;458.58;;;9.00;99.90;;;;;;12577872;28;20060;-36
2024/02/10 05:11:22;;;;;;;486.55;455.90;;;9.00;99.90;;;;;;12578309;28;20059;-36
2024/02/10 05:17:24;;;;;;;493.70;462.52;;;9.00;99.90;;;;;;12578464;28;20049;-37
2024/02/10 05:23:26;;;;;;;485.75;455.00;;;9.00;99.90;;;;;;12573964;28;20059;-37
2024/02/10 05:29:28;;;;;;;478.98;448.85;;;8.90;99.90;;;;;;12570056;28;20052;-36
2024/02/10 05:35:31;;;;;;;480.77;450.65;;;8.90;99.90;;;;;;12584275;28;20091;-36
2024/02/10 05:41:33;;;;;;;475.17;445.10;;;8.90;99.90;;;;;;12573387;28;20061;-37
2024/02/10 05:47:35;;;;;;;473.70;443.50;;;8.90;99.90;;;;;;12583669;28;20053;-37
2024/02/10 05:53:38;;;;;;;477.92;447.67;;;8.80;99.90;;;;;;12577577;28;20053;-37
2024/02/10 05:59:40;;;;;;;473.67;443.73;;;8.80;99.90;;;;;;12579640;28;20053;-36
2024/02/10 06:05:41;;;;;;;445.48;417.15;;;8.70;99.90;;;;;;12574797;28;20091;-37
2024/02/10 06:11:43;;;;;;;447.90;419.35;;;8.70;99.90;;;;;;12579876;28;20053;-35
2024/02/10 06:17:54;;;;;;;435.35;407.63;;;8.60;99.90;;;;;;12566863;28;20143;-36
2024/02/10 06:24:00;;;;;;;423.85;396.60;;;8.60;99.90;;;;;;12578540;28;20164;-36
2024/02/10 06:30:02;;;;;;;421.45;394.67;;;8.60;99.90;;;;;;12577006;28;20061;-37
2024/02/10 06:36:04;;;;;;;423.70;396.95;;;8.70;99.90;;;;;;12583284;28;20401;-36
2024/02/10 06:42:08;;;;;;;427.20;399.80;;;8.70;99.90;;;;;;12580814;28;20135;-36
2024/02/10 06:48:11;;;;;;;428.40;400.98;;;8.60;99.90;;;;;;12587576;28;20056;-36
2024/02/10 06:54:14;;;;;;;454.77;425.27;;;8.50;99.90;;;;;;12585738;28;20060;-37
2024/02/10 07:00:16;;;;;;;468.98;438.58;;;8.40;99.90;;;;;;12588323;28;20793;-37
2024/02/10 07:06:26;;;;;;;481.50;450.38;;;8.20;99.90;;;;;;12581379;28;20717;-36
2024/02/10 07:12:30;;;;;;;496.75;464.55;;;8.10;99.90;;;;;;12580538;28;20428;-37
2024/02/10 07:18:33;;;;;;;478.88;448.25;;;8.10;99.90;;;;;;12581606;28;20742;-36
2024/02/10 07:24:38;;;;;;;490.35;458.80;;;8.20;99.90;;;;;;12579839;28;20091;-36
2024/02/10 07:30:42;;;;;;;462.48;432.15;;;8.20;99.90;;;;;;12586909;28;20056;-36
2024/02/10 07:36:44;;;;;;;485.53;454.37;;;8.30;99.90;;;;;;12589974;28;20068;-36
2024/02/10 07:42:46;;;;;;;459.63;430.33;;;8.40;99.90;;;;;;12585058;28;20048;-37
2024/02/10 07:48:48;;;;;;;456.58;427.50;;;8.70;99.90;;;;;;12588206;28;20048;-36
2024/02/10 07:54:50;;;;;;;449.17;420.33;;;8.90;99.90;;;;;;12581758;28;20459;-37
2024/02/10 08:00:52;;;;;;;449.48;420.80;;;9.20;99.90;;;;;;12585721;28;20827;-36
2024/02/10 08:06:54;;;;;;;464.50;434.83;;;9.40;99.90;;;;;;12575932;28;20482;-37
2024/02/10 08:12:56;;;;;;;476.52;445.98;;;9.50;99.90;;;;;;12578650;28;20076;-37
2024/02/10 08:18:59;;;;;;;459.15;429.73;;;9.60;99.90;;;;;;12585040;28;20713;-38
2024/02/10 08:25:07;;;;;;;467.00;437.15;;;9.80;99.90;;;;;;12570635;28;20137;-37
2024/02/10 08:31:09;;;;;;;464.95;435.02;;;10.00;99.90;;;;;;12569608;28;20064;-36
2024/02/10 08:37:12;;;;;;;466.05;435.83;;;10.20;99.90;;;;;;12574419;28;20511;-37
2024/02/10 08:43:14;;;;;;;460.27;430.55;;;10.30;99.90;;;;;;12583157;28;20504;-36
2024/02/10 08:49:17;;;;;;;490.80;458.40;;;10.40;99.90;;;;;;12583072;28;20083;-37
2024/02/10 08:55:19;;;;;;;458.23;428.33;;;10.40;99.90;;;;;;12582439;28;20056;-35
2024/02/10 09:01:22;;;;;;;458.52;428.58;;;10.60;99.90;;;;;;12575795;28;20053;-34
2024/02/10 09:07:24;;;;;;;474.75;443.40;;;10.80;99.90;;;;;;12582621;28;20056;-37
2024/02/10 09:13:26;;;;;;;448.08;418.63;;;10.80;99.90;;;;;;12584376;28;20052;-37
2024/02/10 09:19:28;;;;;;;454.10;424.15;;;10.90;99.90;;;;;;12575949;28;20228;-36
2024/02/10 09:25:33;;;;;;;434.30;405.60;;;11.00;99.90;;;;;;12566916;28;20055;-36
2024/02/10 09:31:34;;;;;;;417.70;390.05;;;11.10;99.90;;;;;;12566615;28;20049;-36
2024/02/10 09:37:37;;;;;;;417.10;389.55;;;11.10;99.90;;;;;;12581597;28;20436;-36
2024/02/10 09:43:40;;;;;;;416.17;388.92;;;11.10;99.90;;;;;;12579322;28;20061;-36
2024/02/10 09:49:42;;;;;;;383.15;357.65;;;11.20;99.90;;;;;;12581233;28;20059;-36
2024/02/10 09:55:45;;;;;;;354.85;331.30;;;11.30;99.90;;;;;;12571582;28;20474;-36
2024/02/10 10:01:48;;;;;;;357.60;334.17;;;11.30;99.90;;;;;;12589990;28;20059;-36
2024/02/10 10:07:52;;;;;;;336.45;314.35;;;11.50;99.90;;;;;;12574746;28;20084;-36
2024/02/10 10:13:55;;;;;;;335.35;313.27;;;11.60;99.90;;;;;;12581369;28;20413;-36
2024/02/10 10:20:09;;;;;;;337.95;315.45;;;11.70;99.90;;;;;;12585232;28;20099;-36
2024/02/10 10:26:12;;;;;;;317.70;296.30;;;11.90;99.90;;;;;;12588038;28;20436;-36
2024/02/10 10:32:16;;;;;;;309.30;288.60;;;11.80;99.90;;;;;;12586113;28;20063;-36
2024/02/10 10:38:22;;;;;;;314.98;293.98;;;12.10;99.90;;;;;;12585285;28;20074;-36
2024/02/10 10:44:28;;;;;;;279.90;261.77;;;12.20;99.90;;;;;;12590665;28;20053;-36
2024/02/10 10:50:31;;;;;;;283.90;265.67;;;12.40;99.90;;;;;;12590776;28;20185;-36
2024/02/10 10:56:35;;;;;;;276.83;259.05;;;12.40;99.90;;;;;;12578023;28;20516;-36
2024/02/10 11:02:38;;;;;;;279.77;261.73;;;12.40;99.90;;;;;;12585813;28;20640;-36
2024/02/10 11:08:54;;;;;;;273.38;256.10;;;12.60;99.90;;;;;;12585447;28;20294;-36
2024/02/10 11:14:56;;;;;;;258.60;242.85;;;12.70;99.90;;;;;;12582567;28;20624;-36
2024/02/10 11:21:25;;;;;;;270.33;253.80;;;12.80;99.90;;;;;;12588594;28;20386;-36
2024/02/10 11:27:30;;;;;;;263.02;246.85;;;12.90;99.90;;;;;;12580934;28;20516;-37
2024/02/10 11:33:32;;;;;;;235.50;222.10;;;12.90;99.90;;;;;;12588597;28;20136;-36
2024/02/10 11:39:34;;;;;;;246.52;232.18;;;12.80;99.90;;;;;;12573416;28;20059;-36
2024/02/10 11:45:37;;;;;;;230.07;217.13;;;12.70;99.90;;;;;;12587994;28;20059;-36
2024/02/10 11:51:40;;;;;;;226.07;213.70;;;12.70;99.90;;;;;;12580587;28;20146;-36
2024/02/10 11:57:43;;;;;;;237.47;224.00;;;12.80;99.90;;;;;;12586855;28;20044;-36
2024/02/10 12:03:45;;;;;;;207.73;196.70;;;13.10;99.90;;;;;;12574391;28;20053;-36
2024/02/10 12:09:47;;;;;;;233.40;220.65;;;13.30;99.90;;;;;;12578985;28;20106;-36
2024/02/10 12:15:49;;;;;;;211.82;200.65;;;13.50;99.90;;;;;;12576713;28;20052;-36
2024/02/10 12:21:52;;;;;;;217.35;205.93;;;13.40;99.90;;;;;;12580170;28;20182;-36
2024/02/10 12:27:54;;;;;;;226.32;214.48;;;13.60;99.90;;;;;;12577673;28;20151;-36
2024/02/10 12:33:56;;;;;;;225.48;213.68;;;13.70;99.90;;;;;;12585133;28;20056;-36
2024/02/10 12:39:57;;;;;;;206.50;196.13;;;13.80;99.90;;;;;;12565962;28;20410;-36
2024/02/10 12:46:00;;;;;;;193.32;183.68;;;13.70;99.90;;;;;;12581429;28;20103;-36
2024/02/10 12:52:05;;;;;;;207.88;197.43;;;13.70;99.90;;;;;;12587216;28;20057;-36
2024/02/10 12:58:07;;;;;;;209.02;198.52;;;13.50;99.90;;;;;;12562169;28;20049;-36
2024/02/10 13:04:09;;;;;;;194.93;184.88;;;13.40;99.90;;;;;;12568554;28;20530;-36
2024/02/10 13:10:21;;;;;;;174.23;165.23;;;13.20;99.90;;;;;;12577550;28;20056;-36
2024/02/10 13:16:23;;;;;;;173.57;164.80;;;13.00;99.90;;;;;;12575699;28;20040;-36
2024/02/10 13:22:25;;;;;;;150.10;142.73;;;13.30;99.90;;;;;;12570528;28;20056;-36
2024/02/10 13:28:30;;;;;;;154.52;146.82;;;13.50;99.90;;;;;;12577252;28;20389;-36
2024/02/10 13:34:32;;;;;;;167.63;159.40;;;13.70;99.90;;;;;;12577391;28;20079;-36
2024/02/10 14:05:55;;;;;;;157.15;149.55;;;12.80;99.90;;;;;;12569020;28;20068;-36
2024/02/10 14:11:58;;;;;;;147.05;140.05;;;12.70;99.90;;;;;;12576788;28;20140;-36
2024/02/10 14:18:00;;;;;;;141.50;134.70;;;12.50;99.90;;;;;;12572353;28;20103;-36
2024/02/10 14:24:03;;;;;;;123.75;117.82;;;12.40;99.90;;;;;;12566803;28;20048;-36
2024/02/10 14:30:06;;;;;;;120.82;115.05;;;12.50;99.90;;;;;;12561079;28;20417;-36
2024/02/10 14:36:27;;;;;;;116.10;110.63;;;12.60;99.90;;;;;;12587119;28;20485;-36
2024/02/10 14:42:29;;;;;;;104.43;99.53;;;12.80;99.90;;;;;;12556836;28;20052;-36
2024/02/10 14:48:31;;;;;;;101.03;96.28;;;12.90;99.90;;;;;;12581651;28;20072;-36
2024/02/10 14:54:33;;;;;;;104.60;99.68;;;13.10;99.90;;;;;;12576653;28;20100;-36
2024/02/10 15:00:35;;;;;;;104.60;99.72;;;13.10;99.90;;;;;;12582858;28;20131;-36
2024/02/10 15:06:38;;;;;;;108.93;103.88;;;12.80;99.90;;;;;;12581952;28;20095;-36
2024/02/10 15:12:40;;;;;;;104.68;99.78;;;12.60;99.90;;;;;;12586422;28;20516;-36
2024/02/10 15:18:44;;;;;;;116.47;110.95;;;12.50;99.90;;;;;;12565433;28;20045;-36
2024/02/10 15:24:47;;;;;;;127.07;121.03;;;12.40;99.90;;;;;;12582598;28;20049;-36
2024/02/10 15:30:50;;;;;;;129.95;123.65;;;12.30;99.90;;;;;;12571675;28;20060;-36
2024/02/10 15:36:53;;;;;;;118.07;112.38;;;12.20;99.90;;;;;;12587709;28;20045;-36
2024/02/10 15:42:56;;;;;;;125.15;119.13;;;12.20;99.90;;;;;;12585381;28;20071;-37
2024/02/10 15:49:01;;;;;;;134.98;128.48;;;12.10;99.90;;;;;;12574567;28;20187;-36
2024/02/10 15:55:03;;;;;;;136.75;130.02;;;12.10;99.90;;;;;;12574053;28;20052;-36
2024/02/10 16:01:16;;;;;;;128.38;122.07;;;12.00;99.90;;;;;;12578468;28;20461;-36
2024/02/10 16:07:18;;;;;;;129.02;122.72;;;11.90;99.90;;;;;;12573570;28;20139;-35
2024/02/10 16:13:21;;;;;;;136.85;130.15;;;11.90;99.90;;;;;;12566186;28;20060;-36
2024/02/10 16:19:26;;;;;;;134.90;128.05;;;11.80;99.90;;;;;;12577880;28;20052;-36
2024/02/10 16:25:30;;;;;;;141.75;134.40;;;11.60;99.90;;;;;;12578323;28;20062;-36
2024/02/10 16:31:32;;;;;;;150.65;142.48;;;11.40;99.90;;;;;;12569351;28;20045;-36
2024/02/10 16:37:33;;;;;;;150.35;141.80;;;11.20;99.90;;;;;;12573977;28;20056;-36
2024/02/10 16:43:35;;;;;;;145.82;137.13;;;11.00;99.90;;;;;;12557870;28;20045;-35
2024/02/10 16:49:37;;;;;;;153.35;144.30;;;10.80;99.90;;;;;;12562346;28;20053;-36
2024/02/10 16:55:41;;;;;;;144.48;135.77;;;10.70;99.90;;;;;;12568214;28;20420;-35
2024/02/10 17:01:43;;;;;;;142.15;133.55;;;10.60;99.90;;;;;;12581226;28;20049;-35
2024/02/10 17:07:44;;;;;;;143.30;134.80;;;10.50;99.90;;;;;;12569078;28;20052;-36
2024/02/10 17:13:48;;;;;;;138.25;129.95;;;10.30;99.90;;;;;;12547510;28;20056;-36
2024/02/10 17:19:50;;;;;;;143.15;134.48;;;10.20;99.90;;;;;;12571613;28;20048;-36
2024/02/10 17:25:54;;;;;;;149.90;139.73;;;10.10;99.90;;;;;;12575194;28;20159;-36
2024/02/10 17:31:56;;;;;;;148.52;139.48;;;10.10;99.90;;;;;;12575303;28;20139;-36
2024/02/10 17:38:01;;;;;;;146.07;137.18;;;9.90;99.90;;;;;;12578820;28;20508;-36
2024/02/10 17:44:05;;;;;;;139.48;131.18;;;9.90;99.90;;;;;;12569041;28;20060;-36
2024/02/10 17:50:08;;;;;;;140.13;131.80;;;10.10;99.90;;;;;;12561963;28;20053;-36
2024/02/10 17:56:11;;;;;;;151.03;142.13;;;10.20;99.90;;;;;;12583881;28;20057;-36
2024/02/10 18:02:14;;;;;;;148.60;139.80;;;10.20;99.90;;;;;;12580920;28;20554;-36
2024/02/10 18:08:19;;;;;;;153.15;144.05;;;10.20;99.90;;;;;;12570931;28;20055;-37
2024/02/10 18:14:22;;;;;;;148.43;139.63;;;10.20;99.90;;;;;;12583179;28;20053;-36
2024/02/10 18:20:26;;;;;;;147.05;138.38;;;10.20;99.90;;;;;;12580830;28;20052;-36
2024/02/10 18:26:28;;;;;;;140.18;131.98;;;10.10;99.90;;;;;;12583185;28;20048;-36
2024/02/10 18:32:30;;;;;;;129.05;121.57;;;10.30;99.90;;;;;;12582901;28;20083;-36
2024/02/10 18:38:33;;;;;;;130.93;123.22;;;10.50;99.90;;;;;;12583159;28;20052;-36
2024/02/10 18:44:35;;;;;;;134.27;126.40;;;10.50;99.90;;;;;;12589028;28;20053;-35
2024/02/10 18:50:37;;;;;;;128.88;121.20;;;10.50;99.90;;;;;;12586063;28;20106;-35
2024/02/10 18:56:42;;;;;;;138.68;130.55;;;10.60;99.90;;;;;;12574514;28;20044;-36
2024/02/10 19:02:48;;;;;;;141.95;133.68;;;10.50;99.90;;;;;;12576868;28;20045;-36
2024/02/10 19:08:50;;;;;;;142.18;133.93;;;10.40;99.90;;;;;;12575880;28;20425;-36
2024/02/10 19:14:52;;;;;;;138.35;129.95;;;10.50;99.90;;;;;;12587727;28;20048;-36
2024/02/10 19:21:00;;;;;;;141.45;133.10;;;10.50;99.90;;;;;;12585476;28;20139;-36
2024/02/10 19:27:03;;;;;;;154.55;145.50;;;10.40;99.90;;;;;;12578293;28;20057;-35
2024/02/10 19:33:05;;;;;;;153.82;144.85;;;10.30;99.90;;;;;;12589395;28;20053;-35
2024/02/10 19:39:09;;;;;;;150.82;141.88;;;10.40;99.90;;;;;;12579943;28;20061;-36
2024/02/10 19:45:14;;;;;;;157.60;148.25;;;10.40;99.90;;;;;;12584039;28;20065;-36
2024/02/10 19:51:19;;;;;;;161.43;151.80;;;10.30;99.90;;;;;;12557189;28;20052;-35
2024/02/10 19:57:22;;;;;;;163.85;153.90;;;10.20;99.90;;;;;;12584819;28;20048;-35
2024/02/10 20:03:24;;;;;;;163.27;153.52;;;10.00;99.90;;;;;;12569405;28;20087;-36
2024/02/10 20:09:27;;;;;;;152.10;143.10;;;10.00;99.90;;;;;;12576034;28;20139;-36
2024/02/10 20:15:31;;;;;;;142.75;134.45;;;9.90;99.90;;;;;;12578411;28;20105;-36
2024/02/10 20:21:33;;;;;;;144.98;136.32;;;9.80;99.90;;;;;;12568468;28;20167;-35
2024/02/10 20:27:35;;;;;;;142.85;134.35;;;9.80;99.90;;;;;;12585947;28;20044;-36
2024/02/10 20:33:37;;;;;;;142.27;133.75;;;9.80;99.90;;;;;;12576318;28;20049;-36
2024/02/10 20:39:40;;;;;;;142.63;134.23;;;9.80;99.90;;;;;;12581384;28;20481;-35
2024/02/10 20:45:43;;;;;;;144.00;135.40;;;9.80;99.90;;;;;;12584448;28;20117;-35
2024/02/10 20:51:45;;;;;;;145.63;137.05;;;9.80;99.90;;;;;;12574851;28;20098;-35
2024/02/10 20:57:48;;;;;;;145.05;136.45;;;9.80;99.90;;;;;;12577015;28;20149;-36
2024/02/10 21:03:50;;;;;;;144.98;136.55;;;9.80;99.90;;;;;;12581501;28;20098;-35
2024/02/10 21:09:55;;;;;;;145.93;137.35;;;9.90;99.90;;;;;;12578505;28;20052;-35
2024/02/10 21:15:57;;;;;;;141.95;133.65;;;10.00;99.90;;;;;;12583476;28;20508;-36
2024/02/10 21:21:59;;;;;;;146.45;137.85;;;10.00;99.90;;;;;;12580045;28;20053;-35
2024/02/10 21:28:01;;;;;;;151.85;143.00;;;9.90;99.90;;;;;;12570046;28;20098;-36
2024/02/10 21:34:03;;;;;;;154.85;145.55;;;9.90;99.90;;;;;;12579492;28;20072;-35
2024/02/10 21:40:06;;;;;;;151.18;141.68;;;9.80;99.90;;;;;;12577874;28;20182;-36
2024/02/10 21:46:08;;;;;;;147.48;138.57;;;9.80;99.90;;;;;;12570939;28;20064;-35
2024/02/10 21:52:10;;;;;;;151.27;142.23;;;9.90;99.90;;;;;;12571450;28;20045;-35
2024/02/10 21:58:14;;;;;;;155.00;145.60;;;9.90;99.90;;;;;;12581580;28;20139;-35
2024/02/10 22:04:15;;;;;;;154.68;145.50;;;9.80;99.90;;;;;;12589103;28;20053;-35
2024/02/10 22:10:18;;;;;;;149.38;140.45;;;9.70;99.90;;;;;;12589505;28;20075;-35
2024/02/10 22:16:21;;;;;;;151.43;142.43;;;9.60;99.90;;;;;;12591973;28;20053;-35
2024/02/10 22:22:22;;;;;;;156.15;146.52;;;9.50;99.90;;;;;;12591323;28;20068;-36
2024/02/10 22:28:24;;;;;;;153.32;143.93;;;9.50;99.90;;;;;;12588393;28;20059;-36
2024/02/10 22:34:29;;;;;;;157.25;147.40;;;9.40;99.90;;;;;;12576931;28;20049;-35
2024/02/10 22:40:33;;;;;;;163.50;153.40;;;9.30;99.90;;;;;;12579493;28;20525;-36
2024/02/10 22:46:35;;;;;;;168.13;157.30;;;9.30;99.90;;;;;;12581002;28;20068;-36
2024/02/10 22:52:37;;;;;;;175.43;164.30;;;9.20;99.90;;;;;;12581268;28;20088;-35
2024/02/10 22:58:39;;;;;;;175.63;164.50;;;9.20;99.90;;;;;;12577094;28;20405;-35
2024/02/10 23:04:45;;;;;;;179.15;167.70;;;9.20;99.90;;;;;;12580380;28;20056;-35
2024/02/10 23:10:47;;;;;;;174.05;162.75;;;9.20;99.90;;;;;;12581918;28;20056;-35
2024/02/10 23:16:49;;;;;;;184.93;172.63;;;9.20;99.90;;;;;;12574903;28;20056;-35
2024/02/10 23:22:51;;;;;;;183.82;171.80;;;9.20;99.90;;;;;;12588197;28;20070;-35
2024/02/10 23:28:56;;;;;;;179.40;167.93;;;9.20;99.90;;;;;;12588439;28;20048;-35
2024/02/10 23:34:58;;;;;;;180.50;168.73;;;9.30;99.90;;;;;;12579593;28;20071;-35
2024/02/10 23:41:00;;;;;;;180.57;168.88;;;9.30;99.90;;;;;;12584708;28;20049;-35
2024/02/10 23:47:02;;;;;;;175.50;164.10;;;9.30;99.90;;;;;;12577147;28;20056;-35
2024/02/10 23:53:04;;;;;;;191.55;179.18;;;9.40;99.90;;;;;;12582581;28;20105;-36
2024/02/10 23:59:07;;;;;;;197.32;184.32;;;9.40;99.90;;;;;;12580618;28;20132;-35
